If you wish to contribute or participate in the discussions about articles you are invited to join SKYbrary as a registered user

 Actions

Teniente Vidal Airport

From SKYbrary Wiki

SCCY /
Revision as of 12:26, 24 July 2017 by Editor1 (talk | contribs)
(diff) ← Older revision | Latest revision (diff) | Newer revision → (diff)
Airport
ICAO: SCCY – IATA: GXQ
Summary
Name Teniente Vidal Airport
Region South America and Caribbean
Territory Chile CL.gif
Location Coyhaique, Aisen del General Carlos Ibanez del Campo
Serving Coyhaique
Elevation 310.896 m
1,020 ft
1,020 ft310.896 m
Type medium airport
Coordinates 45° 35' 39.16" S, 72° 6' 22.08" W
Runways
Designator Length Width Surface ROPS
3/21 1546 m5,072.178 ft
30 m98.425 ft
ASP /


METAR
Observation SCCY 200200Z AUTO 21005KT 140V270 9999 FEW021 SCT035 07/01 Q1008
Station Coyhaique
Date/Time 20 November 2019 02:00:00
Wind direction 210°
Wind speed 05 kts
Lowest cloud amount few clouds
Temperature 7°C
Dew point 1°C
Humidity 65%
QNH 1008 hPa
Weather condition n/a

Airport 4 km2.16 nm
4,000 m
13,123.36 ft
southwest of Coyhaique, Chile.

Climatology

Temperate oceanic climate (Köppen climate classification Cfb)

Maps

Terrain

Loading map...

Airport Layout

Loading map...


Accidents & Serious Incidents at or in vicinity of SCCY

None on SKYbrary